sensor_id;sensor_type;location;lat;lon;timestamp;P1;durP1;ratioP1;P2;durP2;ratioP2
22502;SDS011;11418;48.118;9.992;2024-03-23T00:54:26;3.40;;;1.80;;
22502;SDS011;11418;48.118;9.992;2024-03-23T00:58:27;3.47;;;2.03;;
22502;SDS011;11418;48.118;9.992;2024-03-23T01:02:27;3.90;;;2.00;;
22502;SDS011;11418;48.118;9.992;2024-03-23T01:06:28;2.58;;;1.67;;
22502;SDS011;11418;48.118;9.992;2024-03-23T01:10:28;2.97;;;1.52;;
22502;SDS011;11418;48.118;9.992;2024-03-23T01:14:29;2.38;;;1.70;;
22502;SDS011;11418;48.118;9.992;2024-03-23T01:18:29;2.30;;;1.70;;
22502;SDS011;11418;48.118;9.992;2024-03-23T01:22:30;5.13;;;1.98;;
22502;SDS011;11418;48.118;9.992;2024-03-23T01:26:33;6.18;;;2.05;;
22502;SDS011;11418;48.118;9.992;2024-03-23T01:30:33;6.57;;;2.28;;
22502;SDS011;11418;48.118;9.992;2024-03-23T01:34:34;4.20;;;1.60;;
22502;SDS011;11418;48.118;9.992;2024-03-23T01:38:35;2.20;;;1.60;;
22502;SDS011;11418;48.118;9.992;2024-03-23T01:42:36;3.55;;;1.83;;
22502;SDS011;11418;48.118;9.992;2024-03-23T01:46:37;2.13;;;1.60;;
22502;SDS011;11418;48.118;9.992;2024-03-23T01:50:39;3.00;;;1.63;;
22502;SDS011;11418;48.118;9.992;2024-03-23T01:54:40;1.98;;;1.70;;
22502;SDS011;11418;48.118;9.992;2024-03-23T01:58:40;3.25;;;1.70;;
22502;SDS011;11418;48.118;9.992;2024-03-23T02:02:44;3.03;;;1.70;;
22502;SDS011;11418;48.118;9.992;2024-03-23T02:06:45;3.72;;;1.90;;
22502;SDS011;11418;48.118;9.992;2024-03-23T02:10:46;2.67;;;1.67;;
22502;SDS011;11418;48.118;9.992;2024-03-23T02:14:50;2.45;;;1.65;;
22502;SDS011;11418;48.118;9.992;2024-03-23T02:18:51;2.90;;;2.05;;
22502;SDS011;11418;48.118;9.992;2024-03-23T02:22:52;2.50;;;1.70;;
22502;SDS011;11418;48.118;9.992;2024-03-23T02:26:53;3.42;;;1.73;;
22502;SDS011;11418;48.118;9.992;2024-03-23T02:30:54;3.40;;;1.73;;
22502;SDS011;11418;48.118;9.992;2024-03-23T02:34:54;2.40;;;1.67;;
22502;SDS011;11418;48.118;9.992;2024-03-23T02:38:55;2.97;;;1.80;;
22502;SDS011;11418;48.118;9.992;2024-03-23T02:42:56;3.13;;;2.00;;
22502;SDS011;11418;48.118;9.992;2024-03-23T02:46:56;4.63;;;1.95;;
22502;SDS011;11418;48.118;9.992;2024-03-23T02:50:57;2.78;;;1.67;;
22502;SDS011;11418;48.118;9.992;2024-03-23T02:54:57;2.80;;;1.83;;
22502;SDS011;11418;48.118;9.992;2024-03-23T02:58:58;4.55;;;2.17;;
22502;SDS011;11418;48.118;9.992;2024-03-23T03:02:58;2.75;;;1.40;;
22502;SDS011;11418;48.118;9.992;2024-03-23T03:06:59;1.95;;;1.40;;
22502;SDS011;11418;48.118;9.992;2024-03-23T03:11:00;4.20;;;1.50;;
22502;SDS011;11418;48.118;9.992;2024-03-23T03:15:00;2.40;;;1.48;;
22502;SDS011;11418;48.118;9.992;2024-03-23T03:19:01;2.83;;;1.48;;
22502;SDS011;11418;48.118;9.992;2024-03-23T03:23:01;2.45;;;1.65;;
22502;SDS011;11418;48.118;9.992;2024-03-23T03:27:02;2.17;;;1.35;;
22502;SDS011;11418;48.118;9.992;2024-03-23T03:31:03;4.45;;;1.95;;
22502;SDS011;11418;48.118;9.992;2024-03-23T03:35:04;3.17;;;1.95;;
22502;SDS011;11418;48.118;9.992;2024-03-23T03:39:05;2.50;;;1.60;;
22502;SDS011;11418;48.118;9.992;2024-03-23T03:43:06;4.95;;;1.65;;
22502;SDS011;11418;48.118;9.992;2024-03-23T03:47:06;4.50;;;1.50;;
22502;SDS011;11418;48.118;9.992;2024-03-23T03:51:07;1.80;;;1.48;;
22502;SDS011;11418;48.118;9.992;2024-03-23T03:55:12;2.22;;;1.65;;
22502;SDS011;11418;48.118;9.992;2024-03-23T03:59:13;2.63;;;1.70;;
22502;SDS011;11418;48.118;9.992;2024-03-23T04:03:15;1.90;;;1.42;;
22502;SDS011;11418;48.118;9.992;2024-03-23T04:07:15;2.28;;;1.52;;
22502;SDS011;11418;48.118;9.992;2024-03-23T04:11:17;2.03;;;1.55;;
22502;SDS011;11418;48.118;9.992;2024-03-23T04:15:17;2.20;;;1.80;;
22502;SDS011;11418;48.118;9.992;2024-03-23T04:19:18;2.47;;;1.52;;
22502;SDS011;11418;48.118;9.992;2024-03-23T04:23:19;3.92;;;1.75;;
22502;SDS011;11418;48.118;9.992;2024-03-23T04:27:21;4.22;;;1.77;;
22502;SDS011;11418;48.118;9.992;2024-03-23T04:31:21;3.25;;;1.70;;
22502;SDS011;11418;48.118;9.992;2024-03-23T04:35:22;3.33;;;1.63;;
22502;SDS011;11418;48.118;9.992;2024-03-23T04:39:25;5.10;;;1.88;;
22502;SDS011;11418;48.118;9.992;2024-03-23T04:43:26;2.88;;;1.58;;
22502;SDS011;11418;48.118;9.992;2024-03-23T04:47:26;2.10;;;1.40;;
22502;SDS011;11418;48.118;9.992;2024-03-23T04:51:27;2.05;;;1.42;;
22502;SDS011;11418;48.118;9.992;2024-03-23T04:55:34;2.10;;;1.38;;
22502;SDS011;11418;48.118;9.992;2024-03-23T04:59:35;2.25;;;1.48;;
22502;SDS011;11418;48.118;9.992;2024-03-23T05:03:36;2.08;;;1.38;;
22502;SDS011;11418;48.118;9.992;2024-03-23T05:07:36;1.98;;;1.48;;
22502;SDS011;11418;48.118;9.992;2024-03-23T05:11:38;3.75;;;1.50;;
22502;SDS011;11418;48.118;9.992;2024-03-23T05:15:38;2.30;;;1.42;;
22502;SDS011;11418;48.118;9.992;2024-03-23T05:19:39;2.42;;;1.52;;
22502;SDS011;11418;48.118;9.992;2024-03-23T05:23:39;2.38;;;1.50;;
22502;SDS011;11418;48.118;9.992;2024-03-23T05:27:40;2.45;;;1.63;;
22502;SDS011;11418;48.118;9.992;2024-03-23T05:31:41;2.33;;;1.38;;
22502;SDS011;11418;48.118;9.992;2024-03-23T05:35:41;3.42;;;1.73;;
22502;SDS011;11418;48.118;9.992;2024-03-23T05:39:42;3.58;;;1.60;;
22502;SDS011;11418;48.118;9.992;2024-03-23T05:43:42;1.80;;;1.48;;
22502;SDS011;11418;48.118;9.992;2024-03-23T05:47:43;3.00;;;1.67;;
22502;SDS011;11418;48.118;9.992;2024-03-23T05:51:44;1.83;;;1.30;;
22502;SDS011;11418;48.118;9.992;2024-03-23T05:55:45;3.33;;;1.55;;
22502;SDS011;11418;48.118;9.992;2024-03-23T05:59:47;2.03;;;1.50;;
22502;SDS011;11418;48.118;9.992;2024-03-23T06:03:48;2.53;;;1.33;;
22502;SDS011;11418;48.118;9.992;2024-03-23T06:07:48;2.80;;;1.50;;
22502;SDS011;11418;48.118;9.992;2024-03-23T06:11:49;3.05;;;1.70;;
22502;SDS011;11418;48.118;9.992;2024-03-23T06:15:50;3.40;;;2.10;;
22502;SDS011;11418;48.118;9.992;2024-03-23T06:19:50;2.60;;;1.50;;
22502;SDS011;11418;48.118;9.992;2024-03-23T06:23:51;2.85;;;1.15;;
22502;SDS011;11418;48.118;9.992;2024-03-23T06:27:52;2.78;;;2.00;;
22502;SDS011;11418;48.118;9.992;2024-03-23T06:31:53;3.28;;;1.50;;
22502;SDS011;11418;48.118;9.992;2024-03-23T06:35:54;2.80;;;1.75;;
22502;SDS011;11418;48.118;9.992;2024-03-23T06:39:55;2.53;;;1.70;;
22502;SDS011;11418;48.118;9.992;2024-03-23T06:43:56;3.22;;;2.00;;
22502;SDS011;11418;48.118;9.992;2024-03-23T06:47:56;3.40;;;1.70;;
22502;SDS011;11418;48.118;9.992;2024-03-23T06:51:58;2.75;;;1.67;;
22502;SDS011;11418;48.118;9.992;2024-03-23T06:55:58;2.28;;;1.70;;
22502;SDS011;11418;48.118;9.992;2024-03-23T06:59:59;4.40;;;1.55;;
22502;SDS011;11418;48.118;9.992;2024-03-23T07:03:59;2.47;;;2.00;;
22502;SDS011;11418;48.118;9.992;2024-03-23T07:08:00;1.27;;;1.08;;
22502;SDS011;11418;48.118;9.992;2024-03-23T07:12:01;1.55;;;1.20;;
22502;SDS011;11418;48.118;9.992;2024-03-23T07:16:01;0.98;;;0.73;;
22502;SDS011;11418;48.118;9.992;2024-03-23T07:20:02;1.30;;;1.00;;
22502;SDS011;11418;48.118;9.992;2024-03-23T07:24:04;1.10;;;0.90;;
22502;SDS011;11418;48.118;9.992;2024-03-23T07:28:04;2.58;;;1.50;;
22502;SDS011;11418;48.118;9.992;2024-03-23T07:32:05;1.17;;;0.57;;
22502;SDS011;11418;48.118;9.992;2024-03-23T07:36:05;0.63;;;0.63;;
22502;SDS011;11418;48.118;9.992;2024-03-23T07:40:06;2.47;;;1.45;;
22502;SDS011;11418;48.118;9.992;2024-03-23T07:44:07;1.88;;;1.42;;
22502;SDS011;11418;48.118;9.992;2024-03-23T07:48:08;3.55;;;1.60;;
22502;SDS011;11418;48.118;9.992;2024-03-23T07:52:09;2.33;;;1.48;;
22502;SDS011;11418;48.118;9.992;2024-03-23T07:56:10;2.88;;;1.77;;
22502;SDS011;11418;48.118;9.992;2024-03-23T08:00:11;2.75;;;1.70;;
22502;SDS011;11418;48.118;9.992;2024-03-23T08:04:13;3.67;;;1.95;;
22502;SDS011;11418;48.118;9.992;2024-03-23T08:08:13;3.05;;;1.67;;
22502;SDS011;11418;48.118;9.992;2024-03-23T08:12:14;4.05;;;2.05;;
22502;SDS011;11418;48.118;9.992;2024-03-23T08:16:14;1.08;;;0.88;;
22502;SDS011;11418;48.118;9.992;2024-03-23T08:20:15;1.40;;;0.98;;
22502;SDS011;11418;48.118;9.992;2024-03-23T08:24:16;0.82;;;0.35;;
22502;SDS011;11418;48.118;9.992;2024-03-23T08:28:16;1.23;;;0.80;;
22502;SDS011;11418;48.118;9.992;2024-03-23T08:32:17;0.88;;;0.55;;
22502;SDS011;11418;48.118;9.992;2024-03-23T08:36:18;1.17;;;0.45;;
22502;SDS011;11418;48.118;9.992;2024-03-23T08:40:18;5.10;;;0.70;;
22502;SDS011;11418;48.118;9.992;2024-03-23T08:44:19;1.55;;;0.52;;
22502;SDS011;11418;48.118;9.992;2024-03-23T08:48:19;0.20;;;0.20;;
22502;SDS011;11418;48.118;9.992;2024-03-23T08:52:20;0.30;;;0.28;;
22502;SDS011;11418;48.118;9.992;2024-03-23T08:56:23;1.40;;;0.80;;
22502;SDS011;11418;48.118;9.992;2024-03-23T09:00:23;0.47;;;0.40;;
22502;SDS011;11418;48.118;9.992;2024-03-23T09:04:24;0.77;;;0.50;;
22502;SDS011;11418;48.118;9.992;2024-03-23T09:08:25;0.30;;;0.30;;
22502;SDS011;11418;48.118;9.992;2024-03-23T09:12:25;0.30;;;0.30;;
22502;SDS011;11418;48.118;9.992;2024-03-23T09:16:26;0.20;;;0.20;;
22502;SDS011;11418;48.118;9.992;2024-03-23T09:20:27;0.10;;;0.10;;
22502;SDS011;11418;48.118;9.992;2024-03-23T09:24:27;0.40;;;0.25;;
22502;SDS011;11418;48.118;9.992;2024-03-23T09:28:28;0.30;;;0.20;;
22502;SDS011;11418;48.118;9.992;2024-03-23T09:32:28;0.35;;;0.20;;
22502;SDS011;11418;48.118;9.992;2024-03-23T09:36:30;0.00;;;0.00;;
22502;SDS011;11418;48.118;9.992;2024-03-23T09:40:31;3.22;;;0.25;;
22502;SDS011;11418;48.118;9.992;2024-03-23T09:44:32;2.97;;;0.77;;
22502;SDS011;11418;48.118;9.992;2024-03-23T09:48:35;4.25;;;0.93;;
22502;SDS011;11418;48.118;9.992;2024-03-23T09:52:36;1.55;;;0.55;;
22502;SDS011;11418;48.118;9.992;2024-03-23T09:56:36;0.57;;;0.40;;
22502;SDS011;11418;48.118;9.992;2024-03-23T10:00:37;1.35;;;0.68;;
22502;SDS011;11418;48.118;9.992;2024-03-23T10:04:41;1.00;;;0.70;;
22502;SDS011;11418;48.118;9.992;2024-03-23T10:08:42;1.55;;;0.43;;
22502;SDS011;11418;48.118;9.992;2024-03-23T10:12:46;1.13;;;0.60;;
22502;SDS011;11418;48.118;9.992;2024-03-23T10:16:50;0.73;;;0.57;;
22502;SDS011;11418;48.118;9.992;2024-03-23T10:20:52;0.80;;;0.32;;
22502;SDS011;11418;48.118;9.992;2024-03-23T10:25:10;1.70;;;0.65;;
22502;SDS011;11418;48.118;9.992;2024-03-23T10:29:11;1.67;;;0.88;;
22502;SDS011;11418;48.118;9.992;2024-03-23T10:33:13;1.85;;;0.90;;
22502;SDS011;11418;48.118;9.992;2024-03-23T10:37:14;2.75;;;1.10;;
22502;SDS011;11418;48.118;9.992;2024-03-23T10:41:15;1.23;;;0.85;;
22502;SDS011;11418;48.118;9.992;2024-03-23T10:45:16;2.15;;;0.57;;
22502;SDS011;11418;48.118;9.992;2024-03-23T10:49:17;1.20;;;0.80;;
22502;SDS011;11418;48.118;9.992;2024-03-23T10:53:17;3.28;;;0.98;;
22502;SDS011;11418;48.118;9.992;2024-03-23T10:57:36;1.73;;;0.80;;
22502;SDS011;11418;48.118;9.992;2024-03-23T11:01:58;1.95;;;0.80;;
22502;SDS011;11418;48.118;9.992;2024-03-23T11:06:08;3.30;;;0.80;;
22502;SDS011;11418;48.118;9.992;2024-03-23T11:10:24;1.38;;;0.82;;
22502;SDS011;11418;48.118;9.992;2024-03-23T11:14:28;0.95;;;0.47;;
22502;SDS011;11418;48.118;9.992;2024-03-23T11:18:38;1.73;;;0.88;;
22502;SDS011;11418;48.118;9.992;2024-03-23T11:22:44;1.77;;;0.80;;
22502;SDS011;11418;48.118;9.992;2024-03-23T11:26:51;1.58;;;0.65;;
22502;SDS011;11418;48.118;9.992;2024-03-23T11:44:37;2.08;;;1.25;;
22502;SDS011;11418;48.118;9.992;2024-03-23T11:49:27;1.63;;;1.10;;
22502;SDS011;11418;48.118;9.992;2024-03-23T11:53:55;5.97;;;1.35;;
22502;SDS011;11418;48.118;9.992;2024-03-23T12:03:17;3.05;;;1.20;;
22502;SDS011;11418;48.118;9.992;2024-03-23T13:00:29;1.08;;;0.60;;
22502;SDS011;11418;48.118;9.992;2024-03-23T13:14:39;0.20;;;0.20;;
22502;SDS011;11418;48.118;9.992;2024-03-23T13:18:40;0.28;;;0.28;;
22502;SDS011;11418;48.118;9.992;2024-03-23T13:22:40;0.20;;;0.20;;
22502;SDS011;11418;48.118;9.992;2024-03-23T13:27:03;2.20;;;0.30;;
22502;SDS011;11418;48.118;9.992;2024-03-23T13:31:12;0.45;;;0.20;;
22502;SDS011;11418;48.118;9.992;2024-03-23T13:54:04;1.77;;;0.60;;
22502;SDS011;11418;48.118;9.992;2024-03-23T13:58:11;0.93;;;0.77;;
22502;SDS011;11418;48.118;9.992;2024-03-23T14:02:18;2.03;;;0.90;;
22502;SDS011;11418;48.118;9.992;2024-03-23T14:06:36;4.60;;;0.90;;
22502;SDS011;11418;48.118;9.992;2024-03-23T14:11:06;1.42;;;0.57;;
22502;SDS011;11418;48.118;9.992;2024-03-23T14:15:07;2.92;;;1.13;;
22502;SDS011;11418;48.118;9.992;2024-03-23T14:19:37;5.60;;;1.25;;
22502;SDS011;11418;48.118;9.992;2024-03-23T14:23:47;2.97;;;0.90;;
22502;SDS011;11418;48.118;9.992;2024-03-23T14:28:08;2.17;;;1.00;;
22502;SDS011;11418;48.118;9.992;2024-03-23T14:32:20;2.83;;;0.50;;
22502;SDS011;11418;48.118;9.992;2024-03-23T14:36:37;1.95;;;0.63;;
22502;SDS011;11418;48.118;9.992;2024-03-23T14:41:03;2.42;;;0.70;;
22502;SDS011;11418;48.118;9.992;2024-03-23T14:45:09;0.68;;;0.47;;
22502;SDS011;11418;48.118;9.992;2024-03-23T14:49:15;2.38;;;0.82;;
22502;SDS011;11418;48.118;9.992;2024-03-23T14:53:40;2.83;;;0.80;;
22502;SDS011;11418;48.118;9.992;2024-03-23T14:58:36;1.80;;;0.55;;
22502;SDS011;11418;48.118;9.992;2024-03-23T15:02:42;4.50;;;0.88;;
22502;SDS011;11418;48.118;9.992;2024-03-23T15:06:52;1.95;;;0.70;;
22502;SDS011;11418;48.118;9.992;2024-03-23T15:10:58;0.20;;;0.20;;
22502;SDS011;11418;48.118;9.992;2024-03-23T15:15:21;1.45;;;0.50;;
22502;SDS011;11418;48.118;9.992;2024-03-23T15:19:27;1.20;;;0.60;;
22502;SDS011;11418;48.118;9.992;2024-03-23T15:23:29;2.08;;;0.70;;
22502;SDS011;11418;48.118;9.992;2024-03-23T15:27:39;1.80;;;0.60;;
22502;SDS011;11418;48.118;9.992;2024-03-23T15:31:49;0.85;;;0.60;;
22502;SDS011;11418;48.118;9.992;2024-03-23T15:36:03;1.85;;;0.63;;
22502;SDS011;11418;48.118;9.992;2024-03-23T15:40:12;1.73;;;0.55;;
22502;SDS011;11418;48.118;9.992;2024-03-23T15:44:27;0.73;;;0.50;;
22502;SDS011;11418;48.118;9.992;2024-03-23T15:48:30;1.45;;;0.30;;
22502;SDS011;11418;48.118;9.992;2024-03-23T15:52:31;1.98;;;0.77;;
22502;SDS011;11418;48.118;9.992;2024-03-23T15:56:32;0.38;;;0.30;;
22502;SDS011;11418;48.118;9.992;2024-03-23T16:00:33;0.80;;;0.35;;
22502;SDS011;11418;48.118;9.992;2024-03-23T16:04:52;3.10;;;0.50;;
22502;SDS011;11418;48.118;9.992;2024-03-23T16:09:02;0.75;;;0.25;;
22502;SDS011;11418;48.118;9.992;2024-03-23T16:13:03;0.10;;;0.10;;
22502;SDS011;11418;48.118;9.992;2024-03-23T16:17:13;0.45;;;0.30;;
22502;SDS011;11418;48.118;9.992;2024-03-23T16:21:14;0.10;;;0.10;;
22502;SDS011;11418;48.118;9.992;2024-03-23T16:25:16;1.45;;;0.20;;
22502;SDS011;11418;48.118;9.992;2024-03-23T16:29:24;2.22;;;0.50;;
22502;SDS011;11418;48.118;9.992;2024-03-23T16:33:24;0.20;;;0.20;;
22502;SDS011;11418;48.118;9.992;2024-03-23T16:37:26;0.73;;;0.40;;
22502;SDS011;11418;48.118;9.992;2024-03-23T16:41:26;0.80;;;0.57;;
22502;SDS011;11418;48.118;9.992;2024-03-23T16:45:56;0.75;;;0.20;;
22502;SDS011;11418;48.118;9.992;2024-03-23T16:50:17;2.42;;;0.73;;
22502;SDS011;11418;48.118;9.992;2024-03-23T16:54:27;0.15;;;0.15;;
22502;SDS011;11418;48.118;9.992;2024-03-23T16:58:31;0.20;;;0.17;;
22502;SDS011;11418;48.118;9.992;2024-03-23T17:02:32;0.28;;;0.20;;
22502;SDS011;11418;48.118;9.992;2024-03-23T17:06:33;2.40;;;0.15;;
22502;SDS011;11418;48.118;9.992;2024-03-23T17:10:34;1.27;;;0.35;;
22502;SDS011;11418;48.118;9.992;2024-03-23T17:14:40;0.63;;;0.52;;
22502;SDS011;11418;48.118;9.992;2024-03-23T17:18:41;0.50;;;0.40;;
22502;SDS011;11418;48.118;9.992;2024-03-23T17:22:41;1.35;;;0.50;;
22502;SDS011;11418;48.118;9.992;2024-03-23T17:26:42;0.75;;;0.43;;
22502;SDS011;11418;48.118;9.992;2024-03-23T17:30:54;0.20;;;0.20;;
22502;SDS011;11418;48.118;9.992;2024-03-23T17:34:55;1.15;;;0.70;;
22502;SDS011;11418;48.118;9.992;2024-03-23T17:39:01;0.15;;;0.15;;
22502;SDS011;11418;48.118;9.992;2024-03-23T17:43:36;0.10;;;0.10;;
22502;SDS011;11418;48.118;9.992;2024-03-23T17:47:42;0.30;;;0.30;;
22502;SDS011;11418;48.118;9.992;2024-03-23T17:51:42;0.10;;;0.10;;
22502;SDS011;11418;48.118;9.992;2024-03-23T17:55:46;0.10;;;0.10;;
22502;SDS011;11418;48.118;9.992;2024-03-23T17:59:46;0.20;;;0.20;;
22502;SDS011;11418;48.118;9.992;2024-03-23T18:04:05;0.55;;;0.20;;
22502;SDS011;11418;48.118;9.992;2024-03-23T18:08:36;0.20;;;0.20;;
22502;SDS011;11418;48.118;9.992;2024-03-23T18:12:41;2.85;;;0.30;;
22502;SDS011;11418;48.118;9.992;2024-03-23T18:17:10;0.10;;;0.10;;
22502;SDS011;11418;48.118;9.992;2024-03-23T18:21:26;0.45;;;0.35;;
22502;SDS011;11418;48.118;9.992;2024-03-23T18:25:53;1.02;;;0.43;;
22502;SDS011;11418;48.118;9.992;2024-03-23T18:30:12;2.70;;;0.50;;
22502;SDS011;11418;48.118;9.992;2024-03-23T18:34:16;0.13;;;0.13;;
22502;SDS011;11418;48.118;9.992;2024-03-23T18:38:17;0.40;;;0.20;;
22502;SDS011;11418;48.118;9.992;2024-03-23T18:42:39;0.93;;;0.65;;
22502;SDS011;11418;48.118;9.992;2024-03-23T18:46:51;1.70;;;0.40;;
22502;SDS011;11418;48.118;9.992;2024-03-23T18:55:54;5.82;;;1.23;;
22502;SDS011;11418;48.118;9.992;2024-03-23T19:00:24;2.72;;;1.15;;
22502;SDS011;11418;48.118;9.992;2024-03-23T19:04:40;2.05;;;0.85;;
22502;SDS011;11418;48.118;9.992;2024-03-23T19:08:44;6.82;;;2.42;;
22502;SDS011;11418;48.118;9.992;2024-03-23T19:12:59;1.17;;;0.45;;
22502;SDS011;11418;48.118;9.992;2024-03-23T19:17:05;0.50;;;0.43;;
22502;SDS011;11418;48.118;9.992;2024-03-23T19:21:06;0.28;;;0.10;;
22502;SDS011;11418;48.118;9.992;2024-03-23T19:25:07;0.10;;;0.10;;
22502;SDS011;11418;48.118;9.992;2024-03-23T19:29:18;0.15;;;0.15;;
22502;SDS011;11418;48.118;9.992;2024-03-23T19:33:29;0.17;;;0.17;;
22502;SDS011;11418;48.118;9.992;2024-03-23T19:37:38;0.50;;;0.35;;
22502;SDS011;11418;48.118;9.992;2024-03-23T19:41:42;0.15;;;0.13;;
22502;SDS011;11418;48.118;9.992;2024-03-23T19:45:44;0.20;;;0.20;;
22502;SDS011;11418;48.118;9.992;2024-03-23T19:49:57;0.10;;;0.10;;
22502;SDS011;11418;48.118;9.992;2024-03-23T19:54:16;0.60;;;0.30;;
22502;SDS011;11418;48.118;9.992;2024-03-23T19:58:19;0.10;;;0.10;;
22502;SDS011;11418;48.118;9.992;2024-03-23T20:03:12;0.30;;;0.20;;
22502;SDS011;11418;48.118;9.992;2024-03-23T20:07:16;0.20;;;0.20;;
22502;SDS011;11418;48.118;9.992;2024-03-23T20:11:23;0.60;;;0.40;;
22502;SDS011;11418;48.118;9.992;2024-03-23T20:16:02;2.20;;;0.40;;
22502;SDS011;11418;48.118;9.992;2024-03-23T20:20:11;1.20;;;0.30;;
22502;SDS011;11418;48.118;9.992;2024-03-23T20:24:24;0.85;;;0.30;;
22502;SDS011;11418;48.118;9.992;2024-03-23T20:28:29;0.93;;;0.38;;
22502;SDS011;11418;48.118;9.992;2024-03-23T20:32:39;3.83;;;0.52;;
22502;SDS011;11418;48.118;9.992;2024-03-23T20:36:49;0.40;;;0.30;;
22502;SDS011;11418;48.118;9.992;2024-03-23T20:40:59;3.58;;;0.40;;
22502;SDS011;11418;48.118;9.992;2024-03-23T20:54:48;0.65;;;0.40;;
22502;SDS011;11418;48.118;9.992;2024-03-23T20:59:20;0.77;;;0.25;;
22502;SDS011;11418;48.118;9.992;2024-03-23T21:03:21;1.27;;;0.80;;
22502;SDS011;11418;48.118;9.992;2024-03-23T21:07:22;2.03;;;0.60;;
22502;SDS011;11418;48.118;9.992;2024-03-23T21:11:26;0.38;;;0.38;;
22502;SDS011;11418;48.118;9.992;2024-03-23T21:15:29;0.40;;;0.40;;
22502;SDS011;11418;48.118;9.992;2024-03-23T21:19:37;0.30;;;0.15;;
22502;SDS011;11418;48.118;9.992;2024-03-23T21:23:40;0.50;;;0.22;;
22502;SDS011;11418;48.118;9.992;2024-03-23T21:27:44;0.90;;;0.30;;
22502;SDS011;11418;48.118;9.992;2024-03-23T21:41:54;0.98;;;0.45;;
22502;SDS011;11418;48.118;9.992;2024-03-23T21:45:58;0.93;;;0.40;;
22502;SDS011;11418;48.118;9.992;2024-03-23T21:55:15;0.30;;;0.30;;
22502;SDS011;11418;48.118;9.992;2024-03-23T21:59:29;0.30;;;0.30;;
22502;SDS011;11418;48.118;9.992;2024-03-23T22:03:51;1.40;;;0.43;;
22502;SDS011;11418;48.118;9.992;2024-03-23T22:08:24;0.63;;;0.50;;
22502;SDS011;11418;48.118;9.992;2024-03-23T22:22:29;0.57;;;0.38;;
22502;SDS011;11418;48.118;9.992;2024-03-23T22:26:33;1.23;;;0.47;;
22502;SDS011;11418;48.118;9.992;2024-03-23T22:30:41;0.70;;;0.43;;
22502;SDS011;11418;48.118;9.992;2024-03-23T22:35:23;0.98;;;0.55;;
22502;SDS011;11418;48.118;9.992;2024-03-23T22:48:29;0.55;;;0.38;;
22502;SDS011;11418;48.118;9.992;2024-03-23T22:52:36;1.38;;;0.50;;
22502;SDS011;11418;48.118;9.992;2024-03-23T22:56:44;0.40;;;0.40;;
22502;SDS011;11418;48.118;9.992;2024-03-23T23:00:47;0.68;;;0.52;;
22502;SDS011;11418;48.118;9.992;2024-03-23T23:05:00;0.60;;;0.32;;
22502;SDS011;11418;48.118;9.992;2024-03-23T23:09:13;1.63;;;0.30;;
22502;SDS011;11418;48.118;9.992;2024-03-23T23:13:17;0.30;;;0.28;;
22502;SDS011;11418;48.118;9.992;2024-03-23T23:17:48;3.55;;;0.40;;
22502;SDS011;11418;48.118;9.992;2024-03-23T23:21:51;0.40;;;0.40;;
22502;SDS011;11418;48.118;9.992;2024-03-23T23:25:55;0.73;;;0.47;;
22502;SDS011;11418;48.118;9.992;2024-03-23T23:30:10;1.17;;;0.47;;
22502;SDS011;11418;48.118;9.992;2024-03-23T23:34:17;3.15;;;0.63;;
22502;SDS011;11418;48.118;9.992;2024-03-23T23:38:26;0.57;;;0.43;;
22502;SDS011;11418;48.118;9.992;2024-03-23T23:42:28;0.65;;;0.47;;
22502;SDS011;11418;48.118;9.992;2024-03-23T23:46:52;3.83;;;0.32;;
22502;SDS011;11418;48.118;9.992;2024-03-23T23:50:53;1.85;;;0.35;;
22502;SDS011;11418;48.118;9.992;2024-03-23T23:54:56;0.40;;;0.30;;
22502;SDS011;11418;48.118;9.992;2024-03-23T23:59:07;0.85;;;0.47;;
